Denver, CO (80212)

2:25 PM MST on February 13, 2016 (GMT -0700)
West Highlands | | Change Station
CLOSE
Current Station
Personal Weather Station
Location: Denver, CO
Elevation: 5482 ft
Nearby Weather Stations

Elev 5482 ft 39.76 °N, 105.05 °W | Updated 1 minute ago

Partly Cloudy
Partly Cloudy
70.0 °F
Feels Like 70.0 °F
N
9.4
Wind Variable Wind from WNW

Today
High -- | Low -- °F
--% Chance of Precip.
Yesterday
High -- | Low -- °F
Precip. -- in
Pressure 29.87 in
Visibility 10.0 miles
Clouds Scattered Clouds 16000 ft
Mostly Cloudy 24000 ft
Dew Point 13 °F
Humidity 11%
Rainfall 0.00 in
Snow Depth Not available.
6:55 AM 5:33 PM
Waxing Crescent, 34% visible
METAR KAPA 132053Z 04008KT 10SM SCT160 BKN240 18/M07 A2994 RMK AO2 SLP114 ACSL DSNT S-W-N T01781072 56025
Pressure 29.87 in
Visibility 10.0 miles
Clouds Scattered Clouds 16000 ft
Mostly Cloudy 24000 ft
Dew Point 13 °F
Humidity 11%
Rainfall 0.00 in
Snow Depth Not available.
6:55 AM 5:33 PM
Waxing Crescent, 34% visible
METAR KAPA 132053Z 04008KT 10SM SCT160 BKN240 18/M07 A2994 RMK AO2 SLP114 ACSL DSNT S-W-N T01781072 56025

10-Day Weather Forecast

Almanac

Astronomy

Feb. 13, 2016 Rise Set
Actual Time
Civil Twilight
Nautical Twilight
Astronomical Twilight
Moon
Length of Visible Light
Length of Day
Tomorrow will be .
, % of the Moon is Illuminated

Today's Extremes

State Highs State Lows

Community

WunderPhotos

Upload Photos

1,892,670 photos uploaded!

WunderBlog® & News

Nearby

Air Quality

  Air Quality AQ Index Pollutant
Not available.

Snow Depth

Station Depth Elevation

Earthquake Activity

City Distance Mag. Time & Date
Minimum magnitude displayed is 2.5.

Coastal Water Temperatures

Place Temperature

Stations

Nearby Weather Stations

Station Location Temp. Windchill Dew Point Humidity Wind Precip. Elev Updated Type
                   

Watches & Warnings

There are currently no watches in effect.